sensor_id;sensor_type;location;lat;lon;timestamp;P1;durP1;ratioP1;P2;durP2;ratioP2
38683;SDS011;24910;53.248;-6.134;2022-07-21T00:01:55;2.22;;;1.25;;
38683;SDS011;24910;53.248;-6.134;2022-07-21T00:04:24;1.63;;;1.00;;
38683;SDS011;24910;53.248;-6.134;2022-07-21T00:06:54;3.25;;;0.98;;
38683;SDS011;24910;53.248;-6.134;2022-07-21T00:09:23;2.83;;;1.30;;
38683;SDS011;24910;53.248;-6.134;2022-07-21T00:11:53;3.28;;;1.08;;
38683;SDS011;24910;53.248;-6.134;2022-07-21T00:14:22;2.83;;;1.00;;
38683;SDS011;24910;53.248;-6.134;2022-07-21T00:16:51;3.58;;;1.15;;
38683;SDS011;24910;53.248;-6.134;2022-07-21T00:19:21;4.50;;;1.10;;
38683;SDS011;24910;53.248;-6.134;2022-07-21T00:21:50;2.60;;;1.05;;
38683;SDS011;24910;53.248;-6.134;2022-07-21T00:24:19;5.53;;;1.20;;
38683;SDS011;24910;53.248;-6.134;2022-07-21T00:26:48;2.78;;;0.98;;
38683;SDS011;24910;53.248;-6.134;2022-07-21T00:29:18;2.58;;;1.10;;
38683;SDS011;24910;53.248;-6.134;2022-07-21T00:31:47;6.13;;;1.17;;
38683;SDS011;24910;53.248;-6.134;2022-07-21T00:34:17;3.80;;;1.23;;
38683;SDS011;24910;53.248;-6.134;2022-07-21T00:36:46;2.15;;;1.00;;
38683;SDS011;24910;53.248;-6.134;2022-07-21T00:39:15;4.68;;;1.30;;
38683;SDS011;24910;53.248;-6.134;2022-07-21T00:41:44;3.30;;;1.35;;
38683;SDS011;24910;53.248;-6.134;2022-07-21T00:44:21;3.30;;;1.40;;
38683;SDS011;24910;53.248;-6.134;2022-07-21T00:46:51;2.63;;;1.23;;
38683;SDS011;24910;53.248;-6.134;2022-07-21T00:49:21;5.13;;;1.20;;
38683;SDS011;24910;53.248;-6.134;2022-07-21T00:51:52;2.17;;;1.20;;
38683;SDS011;24910;53.248;-6.134;2022-07-21T00:54:21;2.60;;;1.38;;
38683;SDS011;24910;53.248;-6.134;2022-07-21T00:56:50;4.68;;;1.17;;
38683;SDS011;24910;53.248;-6.134;2022-07-21T00:59:20;3.00;;;1.20;;
38683;SDS011;24910;53.248;-6.134;2022-07-21T01:04:19;4.70;;;1.40;;
38683;SDS011;24910;53.248;-6.134;2022-07-21T01:06:49;3.17;;;1.33;;
38683;SDS011;24910;53.248;-6.134;2022-07-21T01:09:18;4.43;;;1.20;;
38683;SDS011;24910;53.248;-6.134;2022-07-21T01:11:47;4.38;;;1.30;;
38683;SDS011;24910;53.248;-6.134;2022-07-21T01:14:17;6.05;;;2.08;;
38683;SDS011;24910;53.248;-6.134;2022-07-21T01:16:48;2.85;;;1.30;;
38683;SDS011;24910;53.248;-6.134;2022-07-21T01:19:17;2.17;;;1.23;;
38683;SDS011;24910;53.248;-6.134;2022-07-21T01:21:48;3.55;;;1.35;;
38683;SDS011;24910;53.248;-6.134;2022-07-21T01:24:19;4.20;;;1.50;;
38683;SDS011;24910;53.248;-6.134;2022-07-21T01:26:49;2.20;;;1.20;;
38683;SDS011;24910;53.248;-6.134;2022-07-21T01:29:20;2.90;;;1.20;;
38683;SDS011;24910;53.248;-6.134;2022-07-21T01:31:49;4.13;;;1.40;;
38683;SDS011;24910;53.248;-6.134;2022-07-21T01:34:19;8.10;;;1.13;;
38683;SDS011;24910;53.248;-6.134;2022-07-21T01:36:50;4.40;;;1.50;;
38683;SDS011;24910;53.248;-6.134;2022-07-21T01:39:19;2.97;;;1.20;;
38683;SDS011;24910;53.248;-6.134;2022-07-21T01:42:05;4.15;;;1.50;;
38683;SDS011;24910;53.248;-6.134;2022-07-21T01:44:35;3.80;;;1.30;;
38683;SDS011;24910;53.248;-6.134;2022-07-21T01:47:05;3.63;;;1.35;;
38683;SDS011;24910;53.248;-6.134;2022-07-21T01:49:34;4.95;;;1.20;;
38683;SDS011;24910;53.248;-6.134;2022-07-21T01:52:05;4.45;;;1.50;;
38683;SDS011;24910;53.248;-6.134;2022-07-21T01:54:34;3.28;;;1.10;;
38683;SDS011;24910;53.248;-6.134;2022-07-21T01:57:04;3.40;;;1.00;;
38683;SDS011;24910;53.248;-6.134;2022-07-21T01:59:33;2.88;;;1.00;;
38683;SDS011;24910;53.248;-6.134;2022-07-21T02:02:02;3.53;;;1.20;;
38683;SDS011;24910;53.248;-6.134;2022-07-21T02:04:31;2.83;;;1.05;;
38683;SDS011;24910;53.248;-6.134;2022-07-21T02:07:01;3.20;;;0.95;;
38683;SDS011;24910;53.248;-6.134;2022-07-21T02:09:32;4.18;;;1.17;;
38683;SDS011;24910;53.248;-6.134;2022-07-21T02:12:01;2.78;;;1.17;;
38683;SDS011;24910;53.248;-6.134;2022-07-21T02:14:30;2.25;;;1.00;;
38683;SDS011;24910;53.248;-6.134;2022-07-21T02:17:00;2.45;;;1.30;;
38683;SDS011;24910;53.248;-6.134;2022-07-21T02:19:29;2.95;;;1.10;;
38683;SDS011;24910;53.248;-6.134;2022-07-21T02:21:58;6.05;;;1.10;;
38683;SDS011;24910;53.248;-6.134;2022-07-21T02:24:27;1.65;;;1.02;;
38683;SDS011;24910;53.248;-6.134;2022-07-21T02:26:58;3.97;;;1.27;;
38683;SDS011;24910;53.248;-6.134;2022-07-21T02:29:27;4.67;;;1.27;;
38683;SDS011;24910;53.248;-6.134;2022-07-21T02:31:56;6.30;;;1.33;;
38683;SDS011;24910;53.248;-6.134;2022-07-21T02:34:25;2.65;;;1.23;;
38683;SDS011;24910;53.248;-6.134;2022-07-21T02:36:54;2.72;;;0.80;;
38683;SDS011;24910;53.248;-6.134;2022-07-21T02:39:23;4.70;;;1.13;;
38683;SDS011;24910;53.248;-6.134;2022-07-21T02:41:53;4.65;;;1.10;;
38683;SDS011;24910;53.248;-6.134;2022-07-21T02:44:23;4.38;;;1.40;;
38683;SDS011;24910;53.248;-6.134;2022-07-21T02:46:53;7.13;;;1.65;;
38683;SDS011;24910;53.248;-6.134;2022-07-21T02:49:22;2.13;;;1.17;;
38683;SDS011;24910;53.248;-6.134;2022-07-21T02:51:51;3.97;;;1.58;;
38683;SDS011;24910;53.248;-6.134;2022-07-21T02:54:20;5.30;;;1.33;;
38683;SDS011;24910;53.248;-6.134;2022-07-21T02:56:49;5.28;;;1.20;;
38683;SDS011;24910;53.248;-6.134;2022-07-21T02:59:18;3.85;;;1.67;;
38683;SDS011;24910;53.248;-6.134;2022-07-21T03:01:48;6.07;;;1.70;;
38683;SDS011;24910;53.248;-6.134;2022-07-21T03:04:18;5.40;;;1.20;;
38683;SDS011;24910;53.248;-6.134;2022-07-21T03:06:47;4.28;;;1.40;;
38683;SDS011;24910;53.248;-6.134;2022-07-21T03:09:16;6.22;;;1.40;;
38683;SDS011;24910;53.248;-6.134;2022-07-21T03:11:45;2.53;;;1.23;;
38683;SDS011;24910;53.248;-6.134;2022-07-21T03:14:14;4.20;;;1.30;;
38683;SDS011;24910;53.248;-6.134;2022-07-21T03:16:43;3.70;;;1.30;;
38683;SDS011;24910;53.248;-6.134;2022-07-21T03:19:14;7.43;;;1.50;;
38683;SDS011;24910;53.248;-6.134;2022-07-21T03:21:43;4.17;;;1.33;;
38683;SDS011;24910;53.248;-6.134;2022-07-21T03:24:12;5.18;;;1.40;;
38683;SDS011;24910;53.248;-6.134;2022-07-21T03:26:41;5.50;;;1.50;;
38683;SDS011;24910;53.248;-6.134;2022-07-21T03:29:11;4.13;;;1.40;;
38683;SDS011;24910;53.248;-6.134;2022-07-21T03:31:40;3.10;;;1.33;;
38683;SDS011;24910;53.248;-6.134;2022-07-21T03:34:09;6.35;;;1.42;;
38683;SDS011;24910;53.248;-6.134;2022-07-21T03:36:39;4.13;;;1.60;;
38683;SDS011;24910;53.248;-6.134;2022-07-21T03:39:08;3.53;;;1.40;;
38683;SDS011;24910;53.248;-6.134;2022-07-21T03:41:37;4.68;;;1.30;;
38683;SDS011;24910;53.248;-6.134;2022-07-21T03:44:06;3.60;;;1.40;;
38683;SDS011;24910;53.248;-6.134;2022-07-21T03:46:36;5.60;;;1.58;;
38683;SDS011;24910;53.248;-6.134;2022-07-21T03:49:05;6.13;;;1.75;;
38683;SDS011;24910;53.248;-6.134;2022-07-21T03:51:34;4.20;;;1.30;;
38683;SDS011;24910;53.248;-6.134;2022-07-21T03:54:04;4.72;;;1.42;;
38683;SDS011;24910;53.248;-6.134;2022-07-21T03:56:34;7.73;;;1.70;;
38683;SDS011;24910;53.248;-6.134;2022-07-21T03:59:03;4.45;;;1.58;;
38683;SDS011;24910;53.248;-6.134;2022-07-21T04:01:32;9.02;;;1.75;;
38683;SDS011;24910;53.248;-6.134;2022-07-21T04:04:01;6.63;;;1.95;;
38683;SDS011;24910;53.248;-6.134;2022-07-21T04:06:30;9.45;;;1.92;;
38683;SDS011;24910;53.248;-6.134;2022-07-21T04:08:59;6.90;;;1.77;;
38683;SDS011;24910;53.248;-6.134;2022-07-21T04:11:30;8.45;;;2.05;;
38683;SDS011;24910;53.248;-6.134;2022-07-21T04:13:59;5.13;;;1.90;;
38683;SDS011;24910;53.248;-6.134;2022-07-21T04:16:29;7.63;;;2.03;;
38683;SDS011;24910;53.248;-6.134;2022-07-21T04:18:58;4.72;;;1.70;;
38683;SDS011;24910;53.248;-6.134;2022-07-21T04:21:27;4.30;;;1.63;;
38683;SDS011;24910;53.248;-6.134;2022-07-21T04:23:56;12.98;;;2.08;;
38683;SDS011;24910;53.248;-6.134;2022-07-21T04:26:25;6.22;;;1.80;;
38683;SDS011;24910;53.248;-6.134;2022-07-21T04:28:57;7.63;;;1.73;;
38683;SDS011;24910;53.248;-6.134;2022-07-21T04:31:26;8.60;;;1.63;;
38683;SDS011;24910;53.248;-6.134;2022-07-21T04:33:55;12.48;;;2.22;;
38683;SDS011;24910;53.248;-6.134;2022-07-21T04:36:24;7.60;;;1.80;;
38683;SDS011;24910;53.248;-6.134;2022-07-21T04:38:53;6.22;;;1.67;;
38683;SDS011;24910;53.248;-6.134;2022-07-21T04:41:23;7.93;;;2.28;;
38683;SDS011;24910;53.248;-6.134;2022-07-21T04:43:52;7.07;;;1.83;;
38683;SDS011;24910;53.248;-6.134;2022-07-21T04:46:22;5.57;;;2.05;;
38683;SDS011;24910;53.248;-6.134;2022-07-21T04:48:52;9.70;;;2.33;;
38683;SDS011;24910;53.248;-6.134;2022-07-21T04:51:22;10.18;;;2.10;;
38683;SDS011;24910;53.248;-6.134;2022-07-21T04:53:51;8.88;;;2.50;;
38683;SDS011;24910;53.248;-6.134;2022-07-21T04:56:20;9.27;;;2.28;;
38683;SDS011;24910;53.248;-6.134;2022-07-21T04:58:49;6.70;;;2.05;;
38683;SDS011;24910;53.248;-6.134;2022-07-21T05:01:19;8.15;;;1.90;;
38683;SDS011;24910;53.248;-6.134;2022-07-21T05:03:49;5.82;;;2.10;;
38683;SDS011;24910;53.248;-6.134;2022-07-21T05:06:18;14.83;;;2.67;;
38683;SDS011;24910;53.248;-6.134;2022-07-21T05:08:53;6.13;;;2.40;;
38683;SDS011;24910;53.248;-6.134;2022-07-21T05:11:22;8.95;;;2.13;;
38683;SDS011;24910;53.248;-6.134;2022-07-21T05:13:51;9.95;;;2.35;;
38683;SDS011;24910;53.248;-6.134;2022-07-21T05:16:21;7.53;;;2.35;;
38683;SDS011;24910;53.248;-6.134;2022-07-21T05:18:52;7.72;;;2.35;;
38683;SDS011;24910;53.248;-6.134;2022-07-21T05:21:22;7.80;;;2.10;;
38683;SDS011;24910;53.248;-6.134;2022-07-21T05:23:51;6.75;;;2.55;;
38683;SDS011;24910;53.248;-6.134;2022-07-21T05:26:20;7.53;;;2.50;;
38683;SDS011;24910;53.248;-6.134;2022-07-21T05:28:49;6.43;;;2.25;;
38683;SDS011;24910;53.248;-6.134;2022-07-21T05:31:19;8.38;;;2.65;;
38683;SDS011;24910;53.248;-6.134;2022-07-21T05:33:48;6.50;;;2.22;;
38683;SDS011;24910;53.248;-6.134;2022-07-21T05:36:19;9.95;;;2.17;;
38683;SDS011;24910;53.248;-6.134;2022-07-21T05:38:48;9.63;;;2.42;;
38683;SDS011;24910;53.248;-6.134;2022-07-21T05:41:18;7.53;;;2.22;;
38683;SDS011;24910;53.248;-6.134;2022-07-21T05:43:48;7.85;;;2.17;;
38683;SDS011;24910;53.248;-6.134;2022-07-21T05:46:17;10.80;;;2.50;;
38683;SDS011;24910;53.248;-6.134;2022-07-21T05:48:47;8.57;;;2.30;;
38683;SDS011;24910;53.248;-6.134;2022-07-21T05:51:16;6.72;;;2.30;;
38683;SDS011;24910;53.248;-6.134;2022-07-21T05:53:47;9.33;;;2.43;;
38683;SDS011;24910;53.248;-6.134;2022-07-21T05:56:16;7.68;;;2.60;;
38683;SDS011;24910;53.248;-6.134;2022-07-21T05:58:45;9.90;;;2.78;;
38683;SDS011;24910;53.248;-6.134;2022-07-21T06:01:15;8.05;;;2.28;;
38683;SDS011;24910;53.248;-6.134;2022-07-21T06:03:45;10.68;;;2.75;;
38683;SDS011;24910;53.248;-6.134;2022-07-21T06:06:19;13.75;;;2.53;;
38683;SDS011;24910;53.248;-6.134;2022-07-21T06:08:50;9.00;;;2.40;;
38683;SDS011;24910;53.248;-6.134;2022-07-21T06:11:20;5.60;;;2.60;;
38683;SDS011;24910;53.248;-6.134;2022-07-21T06:13:49;9.02;;;2.58;;
38683;SDS011;24910;53.248;-6.134;2022-07-21T06:16:20;10.45;;;2.58;;
38683;SDS011;24910;53.248;-6.134;2022-07-21T06:18:49;12.82;;;2.50;;
38683;SDS011;24910;53.248;-6.134;2022-07-21T06:21:20;10.23;;;2.80;;
38683;SDS011;24910;53.248;-6.134;2022-07-21T06:23:49;8.73;;;2.57;;
38683;SDS011;24910;53.248;-6.134;2022-07-21T06:26:18;10.88;;;2.40;;
38683;SDS011;24910;53.248;-6.134;2022-07-21T06:28:47;6.60;;;2.20;;
38683;SDS011;24910;53.248;-6.134;2022-07-21T06:31:17;8.77;;;2.63;;
38683;SDS011;24910;53.248;-6.134;2022-07-21T06:33:46;9.48;;;2.05;;
38683;SDS011;24910;53.248;-6.134;2022-07-21T06:36:15;12.63;;;2.58;;
38683;SDS011;24910;53.248;-6.134;2022-07-21T06:38:46;13.30;;;2.67;;
38683;SDS011;24910;53.248;-6.134;2022-07-21T06:41:15;9.67;;;2.70;;
38683;SDS011;24910;53.248;-6.134;2022-07-21T06:43:44;6.50;;;2.40;;
38683;SDS011;24910;53.248;-6.134;2022-07-21T06:46:13;9.25;;;2.60;;
38683;SDS011;24910;53.248;-6.134;2022-07-21T06:48:43;7.85;;;2.33;;
38683;SDS011;24910;53.248;-6.134;2022-07-21T06:51:12;8.30;;;2.38;;
38683;SDS011;24910;53.248;-6.134;2022-07-21T06:53:41;10.00;;;3.15;;
38683;SDS011;24910;53.248;-6.134;2022-07-21T06:56:11;7.22;;;2.72;;
38683;SDS011;24910;53.248;-6.134;2022-07-21T06:58:40;13.37;;;2.80;;
38683;SDS011;24910;53.248;-6.134;2022-07-21T07:01:16;11.13;;;2.45;;
38683;SDS011;24910;53.248;-6.134;2022-07-21T07:03:46;8.13;;;2.22;;
38683;SDS011;24910;53.248;-6.134;2022-07-21T07:06:15;7.10;;;2.45;;
38683;SDS011;24910;53.248;-6.134;2022-07-21T07:08:45;8.65;;;2.25;;
38683;SDS011;24910;53.248;-6.134;2022-07-21T07:11:15;9.32;;;2.30;;
38683;SDS011;24910;53.248;-6.134;2022-07-21T07:13:44;9.87;;;2.93;;
38683;SDS011;24910;53.248;-6.134;2022-07-21T07:16:27;10.80;;;2.85;;
38683;SDS011;24910;53.248;-6.134;2022-07-21T07:18:56;9.48;;;2.33;;
38683;SDS011;24910;53.248;-6.134;2022-07-21T07:21:25;9.48;;;2.75;;
38683;SDS011;24910;53.248;-6.134;2022-07-21T07:23:54;7.80;;;2.70;;
38683;SDS011;24910;53.248;-6.134;2022-07-21T07:26:25;12.25;;;2.70;;
38683;SDS011;24910;53.248;-6.134;2022-07-21T07:28:54;4.60;;;2.33;;
38683;SDS011;24910;53.248;-6.134;2022-07-21T07:31:24;6.18;;;2.30;;
38683;SDS011;24910;53.248;-6.134;2022-07-21T07:33:53;12.57;;;2.60;;
38683;SDS011;24910;53.248;-6.134;2022-07-21T07:36:24;8.73;;;2.47;;
38683;SDS011;24910;53.248;-6.134;2022-07-21T07:38:54;9.98;;;2.70;;
38683;SDS011;24910;53.248;-6.134;2022-07-21T07:41:26;10.55;;;2.65;;
38683;SDS011;24910;53.248;-6.134;2022-07-21T07:43:56;10.13;;;2.50;;
38683;SDS011;24910;53.248;-6.134;2022-07-21T07:46:27;9.60;;;2.53;;
38683;SDS011;24910;53.248;-6.134;2022-07-21T07:48:56;7.25;;;2.22;;
38683;SDS011;24910;53.248;-6.134;2022-07-21T07:51:36;9.05;;;2.15;;
38683;SDS011;24910;53.248;-6.134;2022-07-21T07:54:05;7.05;;;2.13;;
38683;SDS011;24910;53.248;-6.134;2022-07-21T07:56:36;4.82;;;2.08;;
38683;SDS011;24910;53.248;-6.134;2022-07-21T07:59:05;5.03;;;1.65;;
38683;SDS011;24910;53.248;-6.134;2022-07-21T08:01:34;4.13;;;1.60;;
38683;SDS011;24910;53.248;-6.134;2022-07-21T08:04:03;4.40;;;1.70;;
38683;SDS011;24910;53.248;-6.134;2022-07-21T08:06:34;5.53;;;1.95;;
38683;SDS011;24910;53.248;-6.134;2022-07-21T08:09:03;4.68;;;1.70;;
38683;SDS011;24910;53.248;-6.134;2022-07-21T08:11:32;5.05;;;1.65;;
38683;SDS011;24910;53.248;-6.134;2022-07-21T08:14:02;5.60;;;1.70;;
38683;SDS011;24910;53.248;-6.134;2022-07-21T08:16:32;5.60;;;1.27;;
38683;SDS011;24910;53.248;-6.134;2022-07-21T08:19:02;2.97;;;1.60;;
38683;SDS011;24910;53.248;-6.134;2022-07-21T08:21:34;4.88;;;1.45;;
38683;SDS011;24910;53.248;-6.134;2022-07-21T08:24:23;5.78;;;1.58;;
38683;SDS011;24910;53.248;-6.134;2022-07-21T08:26:52;3.80;;;1.17;;
38683;SDS011;24910;53.248;-6.134;2022-07-21T08:29:23;8.40;;;1.50;;
38683;SDS011;24910;53.248;-6.134;2022-07-21T08:31:52;3.67;;;1.33;;
38683;SDS011;24910;53.248;-6.134;2022-07-21T08:34:21;3.85;;;1.17;;
38683;SDS011;24910;53.248;-6.134;2022-07-21T08:36:50;6.45;;;1.55;;
38683;SDS011;24910;53.248;-6.134;2022-07-21T08:39:19;5.68;;;1.40;;
38683;SDS011;24910;53.248;-6.134;2022-07-21T08:41:48;6.55;;;1.60;;
38683;SDS011;24910;53.248;-6.134;2022-07-21T08:44:20;6.75;;;1.60;;
38683;SDS011;24910;53.248;-6.134;2022-07-21T08:46:52;6.35;;;1.95;;
38683;SDS011;24910;53.248;-6.134;2022-07-21T08:49:21;13.55;;;1.85;;
38683;SDS011;24910;53.248;-6.134;2022-07-21T08:51:51;3.67;;;1.65;;
38683;SDS011;24910;53.248;-6.134;2022-07-21T08:54:20;5.65;;;1.88;;
38683;SDS011;24910;53.248;-6.134;2022-07-21T08:56:50;7.75;;;2.00;;
38683;SDS011;24910;53.248;-6.134;2022-07-21T08:59:21;10.47;;;2.00;;
38683;SDS011;24910;53.248;-6.134;2022-07-21T09:01:58;3.92;;;1.40;;
38683;SDS011;24910;53.248;-6.134;2022-07-21T09:04:28;3.73;;;1.60;;
38683;SDS011;24910;53.248;-6.134;2022-07-21T09:07:05;4.43;;;1.75;;
38683;SDS011;24910;53.248;-6.134;2022-07-21T09:09:35;5.22;;;1.50;;
38683;SDS011;24910;53.248;-6.134;2022-07-21T09:12:05;4.20;;;1.73;;
38683;SDS011;24910;53.248;-6.134;2022-07-21T09:14:35;4.97;;;1.60;;
38683;SDS011;24910;53.248;-6.134;2022-07-21T09:17:06;4.15;;;1.60;;
38683;SDS011;24910;53.248;-6.134;2022-07-21T09:19:37;5.82;;;1.80;;
38683;SDS011;24910;53.248;-6.134;2022-07-21T09:22:11;6.05;;;2.05;;
38683;SDS011;24910;53.248;-6.134;2022-07-21T09:24:42;6.63;;;2.13;;
38683;SDS011;24910;53.248;-6.134;2022-07-21T09:27:17;6.43;;;1.73;;
38683;SDS011;24910;53.248;-6.134;2022-07-21T09:29:52;6.65;;;1.83;;
38683;SDS011;24910;53.248;-6.134;2022-07-21T09:32:24;4.55;;;1.95;;
38683;SDS011;24910;53.248;-6.134;2022-07-21T09:34:59;6.25;;;1.90;;
38683;SDS011;24910;53.248;-6.134;2022-07-21T09:37:33;6.80;;;2.13;;
38683;SDS011;24910;53.248;-6.134;2022-07-21T09:40:04;8.40;;;2.50;;
38683;SDS011;24910;53.248;-6.134;2022-07-21T09:42:36;8.13;;;2.35;;
38683;SDS011;24910;53.248;-6.134;2022-07-21T09:47:38;7.38;;;2.25;;
38683;SDS011;24910;53.248;-6.134;2022-07-21T09:50:08;9.45;;;2.75;;
38683;SDS011;24910;53.248;-6.134;2022-07-21T09:52:56;9.27;;;2.47;;
38683;SDS011;24910;53.248;-6.134;2022-07-21T09:55:26;9.93;;;2.35;;
38683;SDS011;24910;53.248;-6.134;2022-07-21T09:57:59;10.02;;;3.05;;
38683;SDS011;24910;53.248;-6.134;2022-07-21T10:00:29;8.73;;;2.65;;
38683;SDS011;24910;53.248;-6.134;2022-07-21T10:03:00;8.73;;;2.50;;
38683;SDS011;24910;53.248;-6.134;2022-07-21T10:05:32;6.85;;;2.38;;
38683;SDS011;24910;53.248;-6.134;2022-07-21T10:08:02;9.77;;;2.65;;
38683;SDS011;24910;53.248;-6.134;2022-07-21T10:10:34;8.05;;;2.40;;
38683;SDS011;24910;53.248;-6.134;2022-07-21T10:13:23;7.65;;;2.13;;
38683;SDS011;24910;53.248;-6.134;2022-07-21T10:15:52;6.45;;;1.80;;
38683;SDS011;24910;53.248;-6.134;2022-07-21T10:18:24;3.65;;;1.90;;
38683;SDS011;24910;53.248;-6.134;2022-07-21T10:20:55;5.30;;;2.30;;
38683;SDS011;24910;53.248;-6.134;2022-07-21T10:23:34;6.63;;;1.58;;
38683;SDS011;24910;53.248;-6.134;2022-07-21T10:26:05;5.50;;;1.92;;
38683;SDS011;24910;53.248;-6.134;2022-07-21T10:28:35;8.63;;;2.00;;
38683;SDS011;24910;53.248;-6.134;2022-07-21T10:31:15;8.75;;;2.38;;
38683;SDS011;24910;53.248;-6.134;2022-07-21T10:33:53;5.18;;;1.77;;
38683;SDS011;24910;53.248;-6.134;2022-07-21T10:36:40;4.03;;;1.60;;
38683;SDS011;24910;53.248;-6.134;2022-07-21T10:39:20;3.33;;;1.70;;
38683;SDS011;24910;53.248;-6.134;2022-07-21T10:41:55;7.77;;;1.60;;
38683;SDS011;24910;53.248;-6.134;2022-07-21T10:44:42;5.55;;;1.75;;
38683;SDS011;24910;53.248;-6.134;2022-07-21T10:47:15;4.90;;;1.70;;
38683;SDS011;24910;53.248;-6.134;2022-07-21T10:49:50;8.80;;;1.88;;
38683;SDS011;24910;53.248;-6.134;2022-07-21T10:55:29;4.40;;;1.45;;
38683;SDS011;24910;53.248;-6.134;2022-07-21T11:00:52;4.28;;;1.27;;
38683;SDS011;24910;53.248;-6.134;2022-07-21T11:03:23;4.93;;;1.70;;
38683;SDS011;24910;53.248;-6.134;2022-07-21T11:06:12;6.20;;;1.67;;
38683;SDS011;24910;53.248;-6.134;2022-07-21T11:09:05;3.55;;;1.17;;
38683;SDS011;24910;53.248;-6.134;2022-07-21T11:11:56;3.63;;;1.45;;
38683;SDS011;24910;53.248;-6.134;2022-07-21T11:14:36;4.35;;;1.52;;
38683;SDS011;24910;53.248;-6.134;2022-07-21T11:17:10;5.47;;;1.60;;
38683;SDS011;24910;53.248;-6.134;2022-07-21T11:19:53;8.32;;;1.40;;
38683;SDS011;24910;53.248;-6.134;2022-07-21T11:22:27;4.85;;;1.50;;
38683;SDS011;24910;53.248;-6.134;2022-07-21T11:24:58;4.65;;;1.92;;
38683;SDS011;24910;53.248;-6.134;2022-07-21T11:27:31;6.03;;;1.60;;
38683;SDS011;24910;53.248;-6.134;2022-07-21T11:30:02;6.65;;;1.85;;
38683;SDS011;24910;53.248;-6.134;2022-07-21T11:32:33;4.45;;;1.38;;
38683;SDS011;24910;53.248;-6.134;2022-07-21T11:35:04;5.30;;;1.63;;
38683;SDS011;24910;53.248;-6.134;2022-07-21T11:37:36;4.72;;;1.42;;
38683;SDS011;24910;53.248;-6.134;2022-07-21T11:40:07;4.97;;;1.73;;
38683;SDS011;24910;53.248;-6.134;2022-07-21T11:42:40;4.47;;;1.60;;
38683;SDS011;24910;53.248;-6.134;2022-07-21T11:45:10;3.80;;;1.58;;
38683;SDS011;24910;53.248;-6.134;2022-07-21T11:47:40;4.80;;;1.90;;
38683;SDS011;24910;53.248;-6.134;2022-07-21T11:50:17;4.80;;;1.50;;
38683;SDS011;24910;53.248;-6.134;2022-07-21T11:52:48;8.35;;;1.90;;
38683;SDS011;24910;53.248;-6.134;2022-07-21T11:55:18;3.75;;;1.33;;
38683;SDS011;24910;53.248;-6.134;2022-07-21T11:57:47;6.47;;;1.67;;
38683;SDS011;24910;53.248;-6.134;2022-07-21T12:00:17;5.35;;;1.48;;
38683;SDS011;24910;53.248;-6.134;2022-07-21T12:02:48;4.82;;;1.80;;
38683;SDS011;24910;53.248;-6.134;2022-07-21T12:05:18;4.50;;;1.77;;
38683;SDS011;24910;53.248;-6.134;2022-07-21T12:07:52;4.35;;;1.63;;
38683;SDS011;24910;53.248;-6.134;2022-07-21T12:10:24;4.95;;;1.27;;
38683;SDS011;24910;53.248;-6.134;2022-07-21T12:12:58;5.88;;;1.48;;
38683;SDS011;24910;53.248;-6.134;2022-07-21T12:15:29;5.80;;;1.70;;
38683;SDS011;24910;53.248;-6.134;2022-07-21T12:18:02;4.53;;;1.67;;
38683;SDS011;24910;53.248;-6.134;2022-07-21T12:23:17;4.97;;;1.40;;
38683;SDS011;24910;53.248;-6.134;2022-07-21T12:25:48;4.40;;;1.30;;
38683;SDS011;24910;53.248;-6.134;2022-07-21T12:31:10;4.60;;;1.52;;
38683;SDS011;24910;53.248;-6.134;2022-07-21T12:33:42;5.50;;;1.40;;
38683;SDS011;24910;53.248;-6.134;2022-07-21T12:36:33;2.55;;;1.10;;
38683;SDS011;24910;53.248;-6.134;2022-07-21T12:39:14;2.83;;;1.30;;
38683;SDS011;24910;53.248;-6.134;2022-07-21T12:42:07;2.90;;;1.00;;
38683;SDS011;24910;53.248;-6.134;2022-07-21T12:44:37;4.05;;;1.15;;
38683;SDS011;24910;53.248;-6.134;2022-07-21T12:47:14;4.63;;;1.17;;
38683;SDS011;24910;53.248;-6.134;2022-07-21T12:52:44;4.63;;;1.27;;
38683;SDS011;24910;53.248;-6.134;2022-07-21T12:55:15;3.53;;;1.20;;
38683;SDS011;24910;53.248;-6.134;2022-07-21T12:57:44;3.25;;;1.73;;
38683;SDS011;24910;53.248;-6.134;2022-07-21T13:00:14;4.10;;;1.10;;
38683;SDS011;24910;53.248;-6.134;2022-07-21T13:02:46;3.03;;;1.10;;
38683;SDS011;24910;53.248;-6.134;2022-07-21T13:05:18;2.33;;;1.10;;
38683;SDS011;24910;53.248;-6.134;2022-07-21T13:07:47;3.05;;;0.95;;
38683;SDS011;24910;53.248;-6.134;2022-07-21T13:10:18;4.03;;;1.10;;
38683;SDS011;24910;53.248;-6.134;2022-07-21T13:12:48;3.20;;;1.00;;
38683;SDS011;24910;53.248;-6.134;2022-07-21T13:15:17;2.67;;;1.13;;
38683;SDS011;24910;53.248;-6.134;2022-07-21T13:17:46;3.53;;;1.00;;
38683;SDS011;24910;53.248;-6.134;2022-07-21T13:20:15;4.30;;;1.58;;
38683;SDS011;24910;53.248;-6.134;2022-07-21T13:22:45;1.65;;;0.90;;
38683;SDS011;24910;53.248;-6.134;2022-07-21T13:25:14;2.65;;;1.02;;
38683;SDS011;24910;53.248;-6.134;2022-07-21T13:27:44;5.10;;;1.30;;
38683;SDS011;24910;53.248;-6.134;2022-07-21T13:30:14;3.00;;;1.17;;
38683;SDS011;24910;53.248;-6.134;2022-07-21T13:32:44;2.28;;;1.08;;
38683;SDS011;24910;53.248;-6.134;2022-07-21T13:35:14;3.13;;;1.45;;
38683;SDS011;24910;53.248;-6.134;2022-07-21T13:37:58;4.85;;;1.23;;
38683;SDS011;24910;53.248;-6.134;2022-07-21T13:40:28;5.47;;;1.17;;
38683;SDS011;24910;53.248;-6.134;2022-07-21T13:43:19;4.22;;;1.48;;
38683;SDS011;24910;53.248;-6.134;2022-07-21T13:46:02;5.32;;;1.40;;
38683;SDS011;24910;53.248;-6.134;2022-07-21T13:48:32;4.07;;;1.40;;
38683;SDS011;24910;53.248;-6.134;2022-07-21T13:51:10;2.95;;;1.35;;
38683;SDS011;24910;53.248;-6.134;2022-07-21T13:53:40;3.70;;;1.35;;
38683;SDS011;24910;53.248;-6.134;2022-07-21T13:56:10;3.97;;;1.30;;
38683;SDS011;24910;53.248;-6.134;2022-07-21T13:58:41;3.63;;;1.30;;
38683;SDS011;24910;53.248;-6.134;2022-07-21T14:01:10;4.47;;;1.30;;
38683;SDS011;24910;53.248;-6.134;2022-07-21T14:03:41;3.03;;;1.37;;
38683;SDS011;24910;53.248;-6.134;2022-07-21T14:06:11;3.58;;;1.60;;
38683;SDS011;24910;53.248;-6.134;2022-07-21T14:08:40;2.58;;;1.27;;
38683;SDS011;24910;53.248;-6.134;2022-07-21T14:11:10;4.70;;;1.40;;
38683;SDS011;24910;53.248;-6.134;2022-07-21T14:13:42;2.30;;;1.10;;
38683;SDS011;24910;53.248;-6.134;2022-07-21T14:16:12;3.75;;;1.40;;
38683;SDS011;24910;53.248;-6.134;2022-07-21T14:18:41;3.85;;;1.27;;
38683;SDS011;24910;53.248;-6.134;2022-07-21T14:21:11;2.60;;;1.40;;
38683;SDS011;24910;53.248;-6.134;2022-07-21T14:23:41;3.23;;;1.37;;
38683;SDS011;24910;53.248;-6.134;2022-07-21T14:26:10;3.90;;;1.35;;
38683;SDS011;24910;53.248;-6.134;2022-07-21T14:28:39;2.90;;;1.23;;
38683;SDS011;24910;53.248;-6.134;2022-07-21T14:31:10;2.27;;;1.20;;
38683;SDS011;24910;53.248;-6.134;2022-07-21T14:33:39;3.80;;;1.50;;
38683;SDS011;24910;53.248;-6.134;2022-07-21T14:36:09;5.80;;;1.30;;
38683;SDS011;24910;53.248;-6.134;2022-07-21T14:38:38;3.25;;;1.25;;
38683;SDS011;24910;53.248;-6.134;2022-07-21T14:41:07;3.95;;;1.40;;
38683;SDS011;24910;53.248;-6.134;2022-07-21T14:43:36;4.95;;;1.63;;
38683;SDS011;24910;53.248;-6.134;2022-07-21T14:46:06;5.72;;;1.60;;
38683;SDS011;24910;53.248;-6.134;2022-07-21T14:48:36;4.18;;;1.35;;
38683;SDS011;24910;53.248;-6.134;2022-07-21T14:51:05;3.25;;;1.30;;
38683;SDS011;24910;53.248;-6.134;2022-07-21T14:53:34;4.30;;;1.40;;
38683;SDS011;24910;53.248;-6.134;2022-07-21T14:56:03;2.67;;;1.20;;
38683;SDS011;24910;53.248;-6.134;2022-07-21T14:58:33;6.78;;;1.55;;
38683;SDS011;24910;53.248;-6.134;2022-07-21T15:01:02;3.65;;;1.50;;
38683;SDS011;24910;53.248;-6.134;2022-07-21T15:03:33;3.47;;;1.33;;
38683;SDS011;24910;53.248;-6.134;2022-07-21T15:06:02;2.75;;;1.30;;
38683;SDS011;24910;53.248;-6.134;2022-07-21T15:08:32;3.17;;;1.58;;
38683;SDS011;24910;53.248;-6.134;2022-07-21T15:11:01;4.90;;;1.52;;
38683;SDS011;24910;53.248;-6.134;2022-07-21T15:13:30;2.90;;;1.30;;
38683;SDS011;24910;53.248;-6.134;2022-07-21T15:16:00;3.95;;;1.25;;